ADDS METAR Data INFO
IDs: Format: Raw Decoded Include TAF

Data at: 2116 UTC 19 Jul 2018

KBIS 192052Z 33007G19KT 10SM CLR 31/13 A2984 RMK AO2 LTG DSNT SE SLP094 T03110133 58004
KBIS 191952Z 33014G18KT 10SM FEW100 32/13 A2985 RMK AO2 SLP097 T03170128
KBIS 191852Z VRB04KT 10SM CLR 30/16 A2985 RMK AO2 SLP100 T03000156
KBIS 191752Z 29009KT 10SM CLR 30/15 A2985 RMK AO2 SLP099 T03000150 10300 20178 51000
KBIS 191652Z 00000KT 10SM CLR 28/15 A2985 RMK AO2 SLP099 T02780150
KBIS 191552Z 10SM CLR 27/17 A2985 RMK AO2 SLP100 T02670167
KBIS 191452Z 00000KT 10SM CLR 24/17 A2985 RMK AO2 SLP100 T02390172 55006
KBIS 191352Z 00000KT 10SM CLR 22/18 A2985 RMK AO2 SLP101 T02170178
KBIS 191252Z 27003KT 10SM CLR 19/17 A2986 RMK AO2 SLP105 T01940172
KBIS 191152Z 00000KT 10SM BKN110 18/17 A2987 RMK AO2 SLP110 70016 T01830172 10200 20183 50004
KBIS 191052Z 33006KT 10SM SCT110 18/17 A2987 RMK AO2 SLP110 T01830167
KBIS 190952Z AUTO 29005KT 10SM CLR 19/17 A2986 RMK AO2 SLP102 T01890167
KBIS 190852Z AUTO 00000KT 10SM CLR 19/17 A2985 RMK AO2 SLP100 T01940172 56003
KBIS 190752Z AUTO 00000KT 10SM CLR 19/18 A2986 RMK AO2 SLP102 T01940183
KBIS 190652Z AUTO 00000KT 10SM SCT120 19/18 A2985 RMK AO2 SLP100 T01890183
KBIS 190552Z AUTO 31005KT 10SM CLR 20/18 A2986 RMK AO2 SLP104 T02000178 10222 20200 402890183 58012
KBIS 190452Z AUTO 31003KT 10SM CLR 21/18 A2988 RMK AO2 SLP110 T02060183
KBIS 190352Z 00000KT 10SM BKN040 21/19 A2990 RMK AO2 SLP119 T02110189
KBIS 190252Z 29004KT 10SM SCT036 SCT042 22/18 A2990 RMK AO2 SLP117 T02170183 55002
KBIS 190152Z 00000KT 10SM BKN031 BKN046 22/19 A2989 RMK AO2 SLP114 T02220189
KBIS 190052Z 00000KT 10SM CLR 22/19 A2989 RMK AO2 SLP116 T02220189
KBIS 182352Z 29005KT 10SM BKN040 BKN060 BKN090 21/18 A2990 RMK AO2 LTG DSNT N RAE19 TSB01E24 SLP122 P0016 60016 T02060183 10289 20200 55000
KBIS 182330Z 28007KT 10SM FEW019 BKN042 BKN060 21/19 A2991 RMK AO2 LTG DSNT W-N RAE19 TSB01E24 P0016 T02060189
KBIS 182301Z 16010G23KT 10SM TSRA FEW020 SCT046 BKN060 22/18 A2990 RMK AO2 LTG DSNT N AND NE TSB01 P0001 T02170178
KBIS 182252Z 21017G23KT 2SM VCTS -RA SCT046 BKN060 BKN100 23/17 A2990 RMK AO2 LTG DSNT N AND NE RAB52 SLP119 P0000 T02330167
KBIS 182231Z 00000KT 9SM VCTS SCT095 27/17 A2990 RMK AO2 LTG DSNT NE T02720172
KBIS 182152Z 13006KT 8SM FEW002 28/16 A2990 RMK AO2 LTG DSNT SE SLP118 T02780161
KBIS 182127Z 15008KT 9SM FEW003 FEW041 SCT070 28/16 A2991 RMK AO2 T02780161
KBIS 182052Z 11006KT 10SM FEW070 28/17 A2992 RMK AO2 SLP122 T02830172 58016
KBIS 181952Z 13007KT 10SM CLR 28/17 A2993 RMK AO2 SLP129 T02780167
KBIS 181852Z 09003KT 10SM SCT048 27/19 A2995 RMK AO2 SLP134 T02670189
KBIS 181752Z 19004KT 10SM CLR 27/18 A2997 RMK AO2 SLP139 T02670183 10267 20183 58006
KBIS 181652Z VRB04KT 10SM SCT033 24/19 A2998 RMK AO2 SLP144 T02440189
KBIS 181552Z 14005KT 10SM CLR 23/19 A2998 RMK AO2 SLP144 T02330189
KBIS 181452Z 14006KT 10SM FEW100 22/18 A2999 RMK AO2 SLP147 T02170183 50000
KBIS 181352Z 08004KT 10SM CLR 21/18 A2999 RMK AO2 SLP147 T02060178
KBIS 181252Z 08006KT 10SM CLR 19/17 A2999 RMK AO2 SLP149 T01940172
KBIS 181152Z 08007KT 10SM CLR 18/17 A2999 RMK AO2 SLP146 T01830172 10200 20183 55007
KBIS 181052Z 08009KT 10SM FEW085 18/17 A2998 RMK AO2 SLP144 T01830172
KBIS 180952Z AUTO 07006KT 10SM CLR 18/17 A2999 RMK AO2 SLP148 T01830172